createdAt,value
2018-06-01T00:01:10.883Z,20.00
2018-06-01T00:03:38.408Z,20.00
2018-06-01T00:06:06.222Z,20.00
2018-06-01T00:08:33.751Z,20.00
2018-06-01T00:11:02.037Z,20.00
2018-06-01T00:13:29.577Z,20.00
2018-06-01T00:15:57.100Z,20.00
2018-06-01T00:18:24.631Z,19.90
2018-06-01T00:20:52.163Z,19.90
2018-06-01T00:23:19.684Z,19.90
2018-06-01T00:25:47.207Z,19.90
2018-06-01T00:28:15.358Z,19.90
2018-06-01T00:30:42.882Z,19.90
2018-06-01T00:33:10.408Z,19.80
2018-06-01T00:35:38.577Z,19.80
2018-06-01T00:38:06.139Z,19.80
2018-06-01T00:40:33.653Z,19.70
2018-06-01T00:43:01.164Z,19.70
2018-06-01T00:45:28.682Z,19.70
2018-06-01T00:47:56.199Z,19.70
2018-06-01T00:50:23.715Z,19.70
2018-06-01T00:52:51.831Z,19.70
2018-06-01T00:55:25.214Z,19.70
2018-06-01T00:57:52.734Z,19.70
2018-06-01T01:00:20.259Z,19.70
2018-06-01T01:02:47.783Z,19.70
2018-06-01T01:05:15.309Z,19.70
2018-06-01T01:07:42.828Z,19.70
2018-06-01T01:10:11.115Z,19.60
2018-06-01T01:12:38.638Z,19.60
2018-06-01T01:15:06.166Z,19.60
2018-06-01T01:17:33.703Z,19.50
2018-06-01T01:20:01.247Z,19.50
2018-06-01T01:22:28.766Z,19.50
2018-06-01T01:24:56.286Z,19.50
2018-06-01T01:27:23.798Z,19.50
2018-06-01T01:29:51.335Z,19.50
2018-06-01T01:32:18.904Z,19.50
2018-06-01T01:34:46.439Z,19.60
2018-06-01T01:37:13.970Z,19.60
2018-06-01T01:39:41.502Z,19.60
2018-06-01T01:42:09.014Z,19.60
2018-06-01T01:44:36.539Z,19.60
2018-06-01T01:47:04.058Z,19.60
2018-06-01T01:49:31.639Z,19.60
2018-06-01T01:51:59.126Z,19.60
2018-06-01T01:54:27.404Z,19.60
2018-06-01T01:56:54.923Z,19.60
2018-06-01T01:59:22.446Z,19.60
2018-06-01T02:01:51.267Z,19.60
2018-06-01T02:04:18.999Z,19.60
2018-06-01T02:06:46.532Z,19.60
2018-06-01T02:09:14.064Z,19.60
2018-06-01T02:11:41.586Z,19.60
2018-06-01T02:14:09.099Z,19.50
2018-06-01T02:16:36.625Z,19.60
2018-06-01T02:19:04.143Z,19.60
2018-06-01T02:21:31.686Z,19.60
2018-06-01T02:23:59.206Z,19.60
2018-06-01T02:26:26.744Z,19.60
2018-06-01T02:28:54.255Z,19.60
2018-06-01T02:31:21.795Z,19.60
2018-06-01T02:33:49.320Z,19.60
2018-06-01T02:36:16.884Z,19.50
2018-06-01T02:38:44.398Z,19.50
2018-06-01T02:41:11.937Z,19.50
2018-06-01T02:43:39.465Z,19.50
2018-06-01T02:46:07.803Z,19.50
2018-06-01T02:48:35.331Z,19.50
2018-06-01T02:51:02.873Z,19.50
2018-06-01T02:53:30.398Z,19.50
2018-06-01T02:55:57.975Z,19.50
2018-06-01T02:58:25.524Z,19.50
2018-06-01T03:00:53.063Z,19.40
2018-06-01T03:03:20.581Z,19.40
2018-06-01T03:05:48.116Z,19.40
2018-06-01T03:08:15.631Z,19.40
2018-06-01T03:10:43.163Z,19.30
2018-06-01T03:13:10.679Z,19.30
2018-06-01T03:15:38.229Z,19.30
2018-06-01T03:18:05.749Z,19.30
2018-06-01T03:20:33.278Z,19.30
2018-06-01T03:23:00.802Z,19.40
2018-06-01T03:25:28.323Z,19.40
2018-06-01T03:27:55.835Z,19.40
2018-06-01T03:30:23.359Z,19.50
2018-06-01T03:32:50.875Z,19.40
2018-06-01T03:35:18.827Z,19.50
2018-06-01T03:37:46.347Z,19.50
2018-06-01T03:40:13.861Z,19.50
2018-06-01T03:42:41.378Z,19.50
2018-06-01T03:45:08.897Z,19.50
2018-06-01T03:47:36.415Z,19.60
2018-06-01T03:50:03.952Z,19.60
2018-06-01T03:52:31.467Z,19.70
2018-06-01T03:54:58.996Z,19.70
2018-06-01T03:57:27.486Z,19.80
2018-06-01T03:59:55.004Z,19.80
2018-06-01T04:02:22.554Z,19.90
2018-06-01T04:04:50.087Z,19.90
2018-06-01T04:07:18.509Z,20.00
2018-06-01T04:09:46.879Z,20.10
2018-06-01T04:12:14.409Z,20.10
2018-06-01T04:14:41.978Z,20.10
2018-06-01T04:17:09.494Z,20.20
2018-06-01T04:19:37.032Z,20.20
2018-06-01T04:22:04.619Z,20.20
2018-06-01T04:24:32.171Z,20.20
2018-06-01T04:27:00.504Z,20.20
2018-06-01T04:29:28.022Z,20.30
2018-06-01T04:31:55.539Z,20.40
2018-06-01T04:34:23.059Z,20.40
2018-06-01T04:36:50.591Z,20.50
2018-06-01T04:39:18.108Z,20.60
2018-06-01T04:41:46.228Z,20.60
2018-06-01T04:44:13.751Z,20.70
2018-06-01T04:46:41.297Z,20.70
2018-06-01T04:49:08.819Z,20.80
2018-06-01T04:51:36.375Z,20.80
2018-06-01T04:54:04.679Z,21.00
2018-06-01T04:56:32.223Z,20.90
2018-06-01T04:59:00.667Z,21.00
2018-06-01T05:01:28.193Z,21.10
2018-06-01T05:03:55.719Z,21.10
2018-06-01T05:06:24.000Z,21.20
2018-06-01T05:08:51.528Z,21.20
2018-06-01T05:11:19.052Z,21.20
2018-06-01T05:13:46.581Z,21.40
2018-06-01T05:16:14.866Z,21.40
2018-06-01T05:18:42.389Z,21.40
2018-06-01T05:21:09.970Z,21.40
2018-06-01T05:23:38.259Z,21.50
2018-06-01T05:26:05.779Z,21.50
2018-06-01T05:28:33.299Z,21.50
2018-06-01T05:31:00.822Z,21.60
2018-06-01T05:33:28.335Z,21.70
2018-06-01T05:35:55.843Z,21.80
2018-06-01T05:38:23.383Z,21.80
2018-06-01T05:40:51.676Z,21.90
2018-06-01T05:43:19.191Z,21.80
2018-06-01T05:45:46.709Z,21.90
2018-06-01T05:48:15.014Z,22.00
2018-06-01T05:50:42.531Z,22.00
2018-06-01T05:53:10.060Z,22.10
2018-06-01T05:55:37.586Z,22.10
2018-06-01T05:58:05.136Z,22.20
2018-06-01T06:00:32.675Z,22.30
2018-06-01T06:03:00.205Z,22.30
2018-06-01T06:05:27.768Z,22.40
2018-06-01T06:07:55.304Z,22.60
2018-06-01T06:10:22.834Z,22.70
2018-06-01T06:12:51.144Z,23.40
2018-06-01T06:15:18.664Z,23.40
2018-06-01T06:17:46.987Z,24.50
2018-06-01T06:20:14.507Z,24.50
2018-06-01T06:22:42.050Z,25.00
2018-06-01T06:25:09.574Z,25.80
2018-06-01T06:27:37.107Z,26.80
2018-06-01T06:30:04.759Z,27.80
2018-06-01T06:32:32.290Z,28.50
2018-06-01T06:34:59.807Z,29.30
2018-06-01T06:37:27.382Z,30.40
2018-06-01T06:39:54.900Z,31.60
2018-06-01T06:42:22.428Z,32.50
2018-06-01T06:44:49.948Z,33.60
2018-06-01T06:47:19.966Z,34.30
2018-06-01T06:49:47.882Z,34.70
2018-06-01T06:52:15.406Z,35.50
2018-06-01T06:54:42.931Z,36.10
2018-06-01T06:57:10.471Z,36.60
2018-06-01T06:59:37.990Z,36.90
2018-06-01T07:02:05.516Z,37.10
2018-06-01T07:04:33.045Z,37.10
2018-06-01T07:07:01.335Z,36.90
2018-06-01T07:09:28.868Z,36.90
2018-06-01T07:11:56.378Z,36.70
2018-06-01T07:14:23.889Z,36.50
2018-06-01T07:16:52.182Z,36.30
2018-06-01T07:19:19.697Z,36.30
2018-06-01T07:21:47.214Z,35.80
2018-06-01T07:24:15.504Z,33.60
2018-06-01T07:26:43.028Z,33.60
2018-06-01T07:29:10.563Z,32.70
2018-06-01T07:31:38.095Z,31.60
2018-06-01T07:34:05.619Z,30.80
2018-06-01T07:36:33.542Z,30.20
2018-06-01T07:39:01.323Z,29.70
2018-06-01T07:41:29.660Z,28.80
2018-06-01T07:43:57.187Z,28.80
2018-06-01T07:46:24.699Z,28.30
2018-06-01T07:48:52.295Z,27.90
2018-06-01T07:51:19.802Z,27.50
2018-06-01T07:53:47.315Z,27.10
2018-06-01T07:56:14.840Z,26.80
2018-06-01T07:58:42.363Z,26.50
2018-06-01T08:01:09.883Z,26.20
2018-06-01T08:03:37.513Z,25.80
2018-06-01T08:06:04.939Z,25.60
2018-06-01T08:08:32.510Z,25.30
2018-06-01T08:11:00.807Z,24.80
2018-06-01T08:13:28.787Z,24.80
2018-06-01T08:15:56.314Z,24.60
2018-06-01T08:18:23.854Z,24.40
2018-06-01T08:20:51.370Z,24.30
2018-06-01T08:23:19.507Z,24.20
2018-06-01T08:25:47.024Z,24.20
2018-06-01T08:28:14.542Z,24.10
2018-06-01T08:30:42.061Z,24.00
2018-06-01T08:33:09.587Z,23.90
2018-06-01T08:35:37.109Z,23.90
2018-06-01T08:38:06.089Z,23.80
2018-06-01T08:40:33.609Z,23.80
2018-06-01T08:43:01.125Z,23.70
2018-06-01T08:45:28.643Z,23.70
2018-06-01T08:47:56.186Z,23.70
2018-06-01T08:50:23.699Z,23.60
2018-06-01T08:52:52.042Z,23.50
2018-06-01T08:55:19.560Z,23.50
2018-06-01T08:57:47.100Z,23.40
2018-06-01T09:00:14.622Z,23.40
2018-06-01T09:02:42.936Z,23.30
2018-06-01T09:05:10.657Z,23.30
2018-06-01T09:07:38.210Z,23.10
2018-06-01T09:10:08.545Z,23.10
2018-06-01T09:12:36.177Z,23.00
2018-06-01T09:15:03.700Z,22.90
2018-06-01T09:17:34.651Z,22.80
2018-06-01T09:20:03.148Z,22.80
2018-06-01T09:22:30.683Z,22.70
2018-06-01T09:24:58.193Z,22.60
2018-06-01T09:27:25.709Z,22.50
2018-06-01T09:29:54.011Z,22.40
2018-06-01T09:32:21.531Z,22.30
2018-06-01T09:34:49.057Z,22.30
2018-06-01T09:37:16.574Z,22.20
2018-06-01T09:39:44.895Z,21.90
2018-06-01T09:42:12.406Z,21.90
2018-06-01T09:44:40.688Z,21.60
2018-06-01T09:47:08.991Z,21.50
2018-06-01T09:49:36.514Z,21.50
2018-06-01T09:52:04.032Z,21.50
2018-06-01T09:54:31.578Z,21.40
2018-06-01T09:56:59.154Z,21.50
2018-06-01T09:59:26.682Z,21.50
2018-06-01T10:01:54.219Z,21.50
2018-06-01T10:04:22.051Z,21.60
2018-06-01T10:06:49.571Z,21.80
2018-06-01T10:09:17.740Z,21.90
2018-06-01T10:11:45.254Z,22.10
2018-06-01T10:14:12.911Z,22.30
2018-06-01T10:16:40.448Z,22.50
2018-06-01T10:19:07.968Z,22.70
2018-06-01T10:21:35.479Z,22.80
2018-06-01T10:24:02.998Z,23.00
2018-06-01T10:26:30.561Z,23.30
2018-06-01T10:28:58.742Z,23.60
2018-06-01T10:31:26.263Z,23.80
2018-06-01T10:33:54.298Z,24.00
2018-06-01T10:36:21.811Z,24.20
2018-06-01T10:38:49.403Z,24.40
2018-06-01T10:41:17.179Z,24.60
2018-06-01T10:43:44.698Z,24.90
2018-06-01T10:46:12.226Z,25.20
2018-06-01T10:48:39.753Z,25.50
2018-06-01T10:51:07.475Z,25.90
2018-06-01T10:53:34.995Z,26.10
2018-06-01T10:56:02.952Z,26.40
2018-06-01T10:58:30.471Z,26.50
2018-06-01T11:00:58.017Z,26.70
2018-06-01T11:03:25.544Z,27.00
2018-06-01T11:05:53.298Z,27.10
2018-06-01T11:08:20.826Z,27.20
2018-06-01T11:10:48.363Z,27.30
2018-06-01T11:13:16.388Z,27.30
2018-06-01T11:15:44.153Z,27.20
2018-06-01T11:18:11.671Z,27.20
2018-06-01T11:20:39.966Z,27.40
2018-06-01T11:23:08.248Z,27.50
2018-06-01T11:25:36.543Z,27.60
2018-06-01T11:28:04.070Z,27.50
2018-06-01T11:30:32.385Z,27.60
2018-06-01T11:32:59.905Z,27.60
2018-06-01T11:35:28.206Z,27.40
2018-06-01T11:37:55.718Z,27.40
2018-06-01T11:40:23.250Z,27.20
2018-06-01T11:42:50.775Z,26.90
2018-06-01T11:45:18.295Z,26.70
2018-06-01T11:47:45.807Z,26.50
2018-06-01T11:50:13.330Z,26.40
2018-06-01T11:52:40.858Z,26.30
2018-06-01T11:55:08.383Z,26.30
2018-06-01T11:57:35.910Z,26.30
2018-06-01T12:00:03.433Z,26.30
2018-06-01T12:02:30.966Z,26.40
2018-06-01T12:04:58.523Z,26.40
2018-06-01T12:07:26.043Z,26.40
2018-06-01T12:09:53.559Z,26.50
2018-06-01T12:12:21.085Z,26.70
2018-06-01T12:14:49.373Z,27.20
2018-06-01T12:17:16.900Z,27.20
2018-06-01T12:19:44.419Z,27.40
2018-06-01T12:22:11.935Z,27.60
2018-06-01T12:24:40.279Z,27.90
2018-06-01T12:27:07.819Z,27.90
2018-06-01T12:29:35.334Z,28.00
2018-06-01T12:32:03.620Z,28.20
2018-06-01T12:34:31.134Z,28.20
2018-06-01T12:36:58.674Z,28.00
2018-06-01T12:39:26.204Z,28.10
2018-06-01T12:41:54.518Z,28.50
2018-06-01T12:44:22.076Z,28.40
2018-06-01T12:46:49.619Z,28.70
2018-06-01T12:49:17.161Z,28.80
2018-06-01T12:51:45.459Z,28.90
2018-06-01T12:54:12.983Z,28.90
2018-06-01T12:56:40.516Z,28.80
2018-06-01T12:59:08.026Z,28.90
2018-06-01T13:01:35.554Z,28.80
2018-06-01T13:04:03.067Z,28.70
2018-06-01T13:06:30.603Z,28.50
2018-06-01T13:08:58.136Z,28.30
2018-06-01T13:11:25.674Z,28.20
2018-06-01T13:13:53.194Z,28.30
2018-06-01T13:16:20.732Z,28.40
2018-06-01T13:18:48.257Z,28.50
2018-06-01T13:21:16.552Z,28.50
2018-06-01T13:23:44.069Z,28.40
2018-06-01T13:26:11.591Z,28.30
2018-06-01T13:28:39.116Z,28.30
2018-06-01T13:31:07.393Z,28.20
2018-06-01T13:33:34.912Z,28.10
2018-06-01T13:36:02.455Z,28.20
2018-06-01T13:38:29.970Z,28.30
2018-06-01T13:40:57.488Z,28.40
2018-06-01T13:43:25.008Z,28.30
2018-06-01T13:45:52.537Z,28.20
2018-06-01T13:48:20.060Z,28.20
2018-06-01T13:50:47.588Z,28.20
2018-06-01T13:53:15.110Z,28.30
2018-06-01T13:55:42.623Z,28.20
2018-06-01T13:58:10.139Z,28.40
2018-06-01T14:00:37.687Z,28.50
2018-06-01T14:03:05.207Z,28.70
2018-06-01T14:05:32.722Z,28.70
2018-06-01T14:08:00.255Z,28.70
2018-06-01T14:10:27.775Z,28.60
2018-06-01T14:12:55.297Z,28.40
2018-06-01T14:15:22.824Z,28.40
2018-06-01T14:17:50.354Z,28.30
2018-06-01T14:20:17.883Z,28.20
2018-06-01T14:22:45.527Z,28.10
2018-06-01T14:25:13.040Z,27.90
2018-06-01T14:27:41.331Z,27.80
2018-06-01T14:30:08.850Z,27.70
2018-06-01T14:32:36.368Z,27.70
2018-06-01T14:35:03.884Z,27.50
2018-06-01T14:37:31.418Z,27.40
2018-06-01T14:39:58.943Z,27.40
2018-06-01T14:42:26.476Z,27.30
2018-06-01T14:44:54.019Z,27.20
2018-06-01T14:47:21.580Z,27.20
2018-06-01T14:49:49.108Z,27.10
2018-06-01T14:52:16.639Z,27.00
2018-06-01T14:54:44.926Z,26.80
2018-06-01T14:57:12.439Z,26.70
2018-06-01T14:59:39.950Z,26.60
2018-06-01T15:02:07.462Z,26.50
2018-06-01T15:04:34.985Z,26.40
2018-06-01T15:07:02.508Z,26.30
2018-06-01T15:09:30.799Z,26.10
2018-06-01T15:11:58.318Z,26.10
2018-06-01T15:14:25.855Z,26.00
2018-06-01T15:16:53.393Z,25.90
2018-06-01T15:19:20.935Z,25.90
2018-06-01T15:21:48.451Z,25.80
2018-06-01T15:24:15.973Z,25.80
2018-06-01T15:26:43.500Z,25.80
2018-06-01T15:29:11.020Z,25.80
2018-06-01T15:31:38.559Z,25.80
2018-06-01T15:34:06.075Z,25.70
2018-06-01T15:36:33.590Z,25.70
2018-06-01T15:39:01.106Z,25.70
2018-06-01T15:41:28.970Z,25.70
2018-06-01T15:43:56.491Z,25.80
2018-06-01T15:46:24.015Z,25.80
2018-06-01T15:48:51.534Z,25.80
2018-06-01T15:51:19.059Z,25.80
2018-06-01T15:53:46.580Z,25.90
2018-06-01T15:56:14.431Z,25.90
2018-06-01T15:58:41.973Z,26.00
2018-06-01T16:01:09.479Z,26.00
2018-06-01T16:03:36.995Z,26.10
2018-06-01T16:06:04.514Z,26.10
2018-06-01T16:08:32.031Z,26.20
2018-06-01T16:11:00.306Z,26.40
2018-06-01T16:13:27.827Z,26.30
2018-06-01T16:15:55.351Z,26.40
2018-06-01T16:18:22.863Z,26.40
2018-06-01T16:20:50.652Z,26.30
2018-06-01T16:23:18.179Z,26.20
2018-06-01T16:25:45.704Z,26.20
2018-06-01T16:28:13.223Z,26.20
2018-06-01T16:30:40.740Z,26.20
2018-06-01T16:33:08.259Z,26.20
2018-06-01T16:35:35.780Z,26.20
2018-06-01T16:38:03.304Z,26.20
2018-06-01T16:40:30.835Z,26.10
2018-06-01T16:42:58.362Z,26.10
2018-06-01T16:45:25.898Z,26.00
2018-06-01T16:47:53.478Z,26.00
2018-06-01T16:50:20.990Z,26.00
2018-06-01T16:52:48.521Z,25.90
2018-06-01T16:55:16.075Z,25.90
2018-06-01T16:57:43.601Z,25.90
2018-06-01T17:00:11.143Z,25.90
2018-06-01T17:02:38.678Z,25.80
2018-06-01T17:05:06.184Z,25.80
2018-06-01T17:07:33.701Z,25.70
2018-06-01T17:10:01.996Z,25.60
2018-06-01T17:12:29.514Z,25.60
2018-06-01T17:14:57.039Z,25.50
2018-06-01T17:17:24.752Z,25.40
2018-06-01T17:19:52.271Z,25.40
2018-06-01T17:22:19.783Z,25.30
2018-06-01T17:24:48.063Z,25.10
2018-06-01T17:27:15.600Z,25.10
2018-06-01T17:29:43.114Z,25.10
2018-06-01T17:32:10.637Z,25.00
2018-06-01T17:34:38.922Z,24.90
2018-06-01T17:37:06.448Z,24.90
2018-06-01T17:39:33.995Z,24.90
2018-06-01T17:42:01.532Z,24.90
2018-06-01T17:44:29.058Z,24.80
2018-06-01T17:46:57.347Z,24.50
2018-06-01T17:49:24.873Z,24.50
2018-06-01T17:51:52.404Z,24.40
2018-06-01T17:54:19.916Z,24.20
2018-06-01T17:56:47.432Z,24.10
2018-06-01T17:59:14.947Z,23.90
2018-06-01T18:01:42.488Z,23.80
2018-06-01T18:04:10.018Z,23.60
2018-06-01T18:06:37.537Z,23.20
2018-06-01T18:09:05.858Z,22.90
2018-06-01T18:11:33.374Z,22.70
2018-06-01T18:14:00.895Z,22.40
2018-06-01T18:16:28.415Z,22.10
2018-06-01T18:18:55.930Z,22.00
2018-06-01T18:21:24.210Z,21.70
2018-06-01T18:23:51.730Z,21.70
2018-06-01T18:26:19.247Z,21.60
2018-06-01T18:28:46.767Z,21.50
2018-06-01T18:31:14.279Z,21.50
2018-06-01T18:33:41.786Z,21.50
2018-06-01T18:36:09.317Z,21.40
2018-06-01T18:38:36.943Z,21.40
2018-06-01T18:41:05.228Z,21.30
2018-06-01T18:43:33.347Z,21.30
2018-06-01T18:46:00.860Z,21.30
2018-06-01T18:48:28.728Z,21.30
2018-06-01T18:50:56.354Z,21.30
2018-06-01T18:53:23.871Z,21.30
2018-06-01T18:55:51.431Z,21.30
2018-06-01T18:58:18.951Z,21.30
2018-06-01T19:00:46.471Z,21.30
2018-06-01T19:03:14.020Z,21.40
2018-06-01T19:05:41.551Z,21.40
2018-06-01T19:08:09.098Z,21.40
2018-06-01T19:10:36.616Z,21.40
2018-06-01T19:13:04.236Z,21.40
2018-06-01T19:15:31.733Z,21.40
2018-06-01T19:18:00.038Z,21.40
2018-06-01T19:20:27.826Z,21.30
2018-06-01T19:22:55.360Z,21.30
2018-06-01T19:25:22.891Z,21.30
2018-06-01T19:27:50.406Z,21.30
2018-06-01T19:30:17.954Z,21.30
2018-06-01T19:32:46.237Z,21.20
2018-06-01T19:35:13.764Z,21.20
2018-06-01T19:37:41.286Z,21.30
2018-06-01T19:40:08.863Z,21.20
2018-06-01T19:42:36.355Z,21.20
2018-06-01T19:45:03.875Z,21.20
2018-06-01T19:47:31.418Z,21.20
2018-06-01T19:49:58.936Z,21.20
2018-06-01T19:52:26.463Z,21.10
2018-06-01T19:54:53.995Z,21.10
2018-06-01T19:57:21.515Z,21.00
2018-06-01T19:59:49.107Z,20.90
2018-06-01T20:02:16.696Z,20.90
2018-06-01T20:04:44.232Z,20.80
2018-06-01T20:07:11.786Z,20.70
2018-06-01T20:09:39.330Z,20.70
2018-06-01T20:12:07.611Z,20.60
2018-06-01T20:14:35.542Z,20.60
2018-06-01T20:17:03.101Z,20.60
2018-06-01T20:19:30.610Z,20.50
2018-06-01T20:21:58.895Z,20.50
2018-06-01T20:24:26.416Z,20.50
2018-06-01T20:26:53.956Z,20.50
2018-06-01T20:29:21.478Z,20.60
2018-06-01T20:31:49.008Z,20.50
2018-06-01T20:34:16.532Z,20.50
2018-06-01T20:36:44.819Z,20.50
2018-06-01T20:39:12.623Z,20.50
2018-06-01T20:41:40.317Z,20.40
2018-06-01T20:44:07.990Z,20.40
2018-06-01T20:46:35.516Z,20.40
2018-06-01T20:49:03.302Z,20.40
2018-06-01T20:51:30.835Z,20.40
2018-06-01T20:53:58.350Z,20.40
2018-06-01T20:56:26.165Z,20.30
2018-06-01T20:58:53.700Z,20.40
2018-06-01T21:01:24.292Z,20.30
2018-06-01T21:03:51.811Z,20.30
2018-06-01T21:06:19.685Z,20.30
2018-06-01T21:08:47.195Z,20.20
2018-06-01T21:11:14.711Z,20.20
2018-06-01T21:13:42.232Z,20.20
2018-06-01T21:16:09.774Z,20.20
2018-06-01T21:18:37.291Z,20.20
2018-06-01T21:21:05.580Z,20.20
2018-06-01T21:23:33.115Z,20.20
2018-06-01T21:26:00.630Z,20.20
2018-06-01T21:28:28.188Z,20.20
2018-06-01T21:30:55.754Z,20.20
2018-06-01T21:33:23.243Z,20.20
2018-06-01T21:35:50.756Z,20.30
2018-06-01T21:38:18.285Z,20.20
2018-06-01T21:40:45.810Z,20.20
2018-06-01T21:43:13.351Z,20.20
2018-06-01T21:45:40.859Z,20.20
2018-06-01T21:48:09.154Z,20.20
2018-06-01T21:50:36.668Z,20.20
2018-06-01T21:53:04.708Z,20.20
2018-06-01T21:55:32.265Z,20.20
2018-06-01T21:57:59.815Z,20.20
2018-06-01T22:00:28.275Z,20.20
2018-06-01T22:02:55.800Z,20.20
2018-06-01T22:05:23.326Z,20.10
2018-06-01T22:07:50.843Z,20.00
2018-06-01T22:10:18.380Z,20.00
2018-06-01T22:12:45.900Z,20.00
2018-06-01T22:15:13.410Z,20.00
2018-06-01T22:17:40.936Z,20.00
2018-06-01T22:20:08.456Z,20.00
2018-06-01T22:22:36.747Z,19.90
2018-06-01T22:25:04.268Z,19.90
2018-06-01T22:27:31.785Z,19.90
2018-06-01T22:29:59.306Z,20.00
2018-06-01T22:32:26.822Z,19.90
2018-06-01T22:34:54.339Z,19.90
2018-06-01T22:37:21.851Z,19.90
2018-06-01T22:39:49.374Z,19.90
2018-06-01T22:42:16.890Z,19.90
2018-06-01T22:44:44.414Z,19.90
2018-06-01T22:47:11.928Z,19.90
2018-06-01T22:49:40.223Z,19.90
2018-06-01T22:52:07.748Z,19.90
2018-06-01T22:54:35.295Z,19.90
2018-06-01T22:57:02.807Z,19.90
2018-06-01T22:59:30.332Z,19.90
2018-06-01T23:01:57.848Z,19.90
2018-06-01T23:04:25.427Z,19.90
2018-06-01T23:06:52.953Z,19.90
2018-06-01T23:09:20.481Z,19.90
2018-06-01T23:11:47.995Z,19.80
2018-06-01T23:14:15.530Z,19.80
2018-06-01T23:16:43.054Z,19.70
2018-06-01T23:19:10.570Z,19.70
2018-06-01T23:21:38.114Z,19.70
2018-06-01T23:24:05.639Z,19.70
2018-06-01T23:26:33.163Z,19.60
2018-06-01T23:29:00.682Z,19.60
2018-06-01T23:31:28.202Z,19.60
2018-06-01T23:33:55.729Z,19.60
2018-06-01T23:36:23.262Z,19.50
2018-06-01T23:38:50.779Z,19.50
2018-06-01T23:41:18.304Z,19.40
2018-06-01T23:43:45.819Z,19.40
2018-06-01T23:46:13.335Z,19.40
2018-06-01T23:48:41.444Z,19.40
2018-06-01T23:51:08.976Z,19.40
2018-06-01T23:53:36.491Z,19.40
2018-06-01T23:56:04.015Z,19.40
2018-06-01T23:58:31.534Z,19.30
